BVX7126 PHLI-PHNL
Flight info
| Callsign | BVX7126 |
|---|---|
| Flight time | 0h 21m |
| Altitude | 13000 |
| Route | KAUAI2 KAUAI V15 ZIKAB KLANI KLANI4 |
| Aircraft | B738/M-SDE2E3FGHIRWXY/LB1 |
Departure
| Time | 2026-05-06 20:17 |
|---|---|
| Airport | Lihue Airport (PHLI) |
Arrival
| Time | 2026-05-06 20:38 |
|---|---|
| Airport | Daniel K. Inouye International Airport (PHNL) |
| Time | Latitude | Longitude | Altitude | Speed | Heading |
|---|---|---|---|---|---|
| 2026-05-06 20:00 | 21.97603 | -159.35017 | 135 ft | 0 kts | 322° |
| 2026-05-06 20:12 | 21.97595 | -159.35011 | 136 ft | 4 kts | 296° |
| 2026-05-06 20:12 | 21.97581 | -159.34991 | 135 ft | 4 kts | 325° |
| 2026-05-06 20:12 | 21.97558 | -159.34981 | 136 ft | 4 kts | 4° |
| 2026-05-06 20:13 | 21.97537 | -159.34989 | 137 ft | 2 kts | 44° |
| 2026-05-06 20:13 | 21.97536 | -159.34990 | 137 ft | 1 kts | 45° |
| 2026-05-06 20:15 | 21.97548 | -159.34976 | 136 ft | 7 kts | 44° |
| 2026-05-06 20:15 | 21.97595 | -159.34909 | 134 ft | 12 kts | 81° |
| 2026-05-06 20:15 | 21.97549 | -159.34836 | 133 ft | 12 kts | 142° |
| 2026-05-06 20:15 | 21.97477 | -159.34854 | 136 ft | 12 kts | 224° |
| 2026-05-06 20:16 | 21.97413 | -159.34924 | 139 ft | 11 kts | 223° |
| 2026-05-06 20:16 | 21.97343 | -159.34929 | 141 ft | 11 kts | 142° |
| 2026-05-06 20:16 | 21.97313 | -159.34864 | 140 ft | 10 kts | 68° |
| 2026-05-06 20:16 | 21.97391 | -159.34775 | 136 ft | 36 kts | 45° |
| 2026-05-06 20:17 | 21.97773 | -159.34368 | 113 ft | 116 kts | 45° |
| 2026-05-06 20:17 | 21.98483 | -159.33612 | 316 ft | 161 kts | 44° |
| 2026-05-06 20:17 | 21.99270 | -159.32729 | 1203 ft | 166 kts | 56° |
| 2026-05-06 20:17 | 21.99466 | -159.31507 | 2020 ft | 176 kts | 98° |
| 2026-05-06 20:18 | 21.98989 | -159.30162 | 2393 ft | 212 kts | 122° |
| 2026-05-06 20:18 | 21.97819 | -159.29051 | 2660 ft | 240 kts | 155° |
| 2026-05-06 20:18 | 21.96159 | -159.28452 | 2986 ft | 263 kts | 163° |
| 2026-05-06 20:18 | 21.94380 | -159.27897 | 3689 ft | 273 kts | 164° |
| 2026-05-06 20:19 | 21.92586 | -159.27271 | 4765 ft | 272 kts | 154° |
| 2026-05-06 20:19 | 21.91142 | -159.25932 | 5666 ft | 279 kts | 127° |
| 2026-05-06 20:19 | 21.90117 | -159.24133 | 6603 ft | 284 kts | 122° |
| 2026-05-06 20:19 | 21.89166 | -159.22274 | 7398 ft | 290 kts | 121° |
| 2026-05-06 20:20 | 21.88194 | -159.20345 | 8208 ft | 295 kts | 121° |
| 2026-05-06 20:20 | 21.87198 | -159.18378 | 9090 ft | 300 kts | 121° |
| 2026-05-06 20:20 | 21.86187 | -159.16398 | 10012 ft | 303 kts | 121° |
| 2026-05-06 20:20 | 21.85160 | -159.14402 | 10530 ft | 318 kts | 121° |
| 2026-05-06 20:21 | 21.84038 | -159.12233 | 10712 ft | 343 kts | 121° |
| 2026-05-06 20:21 | 21.82848 | -159.09938 | 11174 ft | 356 kts | 121° |
| 2026-05-06 20:21 | 21.81637 | -159.07600 | 11878 ft | 359 kts | 121° |
| 2026-05-06 20:21 | 21.80413 | -159.05245 | 12557 ft | 361 kts | 121° |
| 2026-05-06 20:22 | 21.79182 | -159.02878 | 12920 ft | 362 kts | 122° |
| 2026-05-06 20:22 | 21.77889 | -159.00523 | 12990 ft | 370 kts | 123° |
| 2026-05-06 20:22 | 21.76540 | -158.98166 | 12999 ft | 377 kts | 124° |
| 2026-05-06 20:22 | 21.75165 | -158.95759 | 12991 ft | 376 kts | 123° |
| 2026-05-06 20:23 | 21.73797 | -158.93355 | 12983 ft | 375 kts | 123° |
| 2026-05-06 20:23 | 21.72453 | -158.90990 | 12983 ft | 375 kts | 123° |
| 2026-05-06 20:23 | 21.71097 | -158.88602 | 12991 ft | 374 kts | 123° |
| 2026-05-06 20:23 | 21.69740 | -158.86212 | 12984 ft | 374 kts | 123° |
| 2026-05-06 20:24 | 21.68838 | -158.84624 | 12980 ft | 374 kts | 123° |
| 2026-05-06 20:24 | 21.67480 | -158.82232 | 12983 ft | 374 kts | 123° |
| 2026-05-06 20:24 | 21.65709 | -158.79113 | 12967 ft | 361 kts | 123° |
| 2026-05-06 20:24 | 21.64423 | -158.76847 | 12921 ft | 350 kts | 123° |
| 2026-05-06 20:25 | 21.63161 | -158.74628 | 12670 ft | 343 kts | 123° |
| 2026-05-06 20:25 | 21.62339 | -158.73183 | 12461 ft | 340 kts | 123° |
| 2026-05-06 20:25 | 21.60707 | -158.70316 | 12001 ft | 337 kts | 123° |
| 2026-05-06 20:25 | 21.59881 | -158.68867 | 11760 ft | 335 kts | 123° |
| 2026-05-06 20:26 | 21.58680 | -158.66758 | 11396 ft | 333 kts | 123° |
| 2026-05-06 20:26 | 21.57470 | -158.64634 | 11045 ft | 332 kts | 123° |
| 2026-05-06 20:26 | 21.56266 | -158.62523 | 10677 ft | 330 kts | 123° |
| 2026-05-06 20:26 | 21.55080 | -158.60443 | 10522 ft | 323 kts | 123° |
| 2026-05-06 20:27 | 21.53899 | -158.58404 | 10372 ft | 321 kts | 124° |
| 2026-05-06 20:27 | 21.52706 | -158.56373 | 10185 ft | 318 kts | 124° |
| 2026-05-06 20:27 | 21.51544 | -158.54418 | 10042 ft | 311 kts | 124° |
| 2026-05-06 20:27 | 21.50412 | -158.52505 | 9958 ft | 295 kts | 124° |
| 2026-05-06 20:28 | 21.49308 | -158.50637 | 9565 ft | 297 kts | 124° |
| 2026-05-06 20:28 | 21.48208 | -158.48773 | 9278 ft | 293 kts | 124° |
| 2026-05-06 20:28 | 21.47141 | -158.46963 | 8986 ft | 288 kts | 124° |
| 2026-05-06 20:28 | 21.46074 | -158.45155 | 8707 ft | 286 kts | 124° |
| 2026-05-06 20:29 | 21.45009 | -158.43354 | 8437 ft | 285 kts | 124° |
| 2026-05-06 20:29 | 21.43951 | -158.41565 | 8164 ft | 283 kts | 124° |
| 2026-05-06 20:29 | 21.42895 | -158.39780 | 7914 ft | 283 kts | 124° |
| 2026-05-06 20:29 | 21.41830 | -158.37981 | 7624 ft | 286 kts | 124° |
| 2026-05-06 20:30 | 21.40768 | -158.36187 | 7308 ft | 282 kts | 124° |
| 2026-05-06 20:30 | 21.38697 | -158.32689 | 6794 ft | 278 kts | 124° |
| 2026-05-06 20:30 | 21.37663 | -158.30944 | 6520 ft | 277 kts | 124° |
| 2026-05-06 20:31 | 21.36616 | -158.29213 | 6241 ft | 276 kts | 127° |
| 2026-05-06 20:31 | 21.35376 | -158.27648 | 5966 ft | 275 kts | 135° |
| 2026-05-06 20:31 | 21.34061 | -158.26178 | 5672 ft | 276 kts | 136° |
| 2026-05-06 20:31 | 21.32728 | -158.24701 | 5387 ft | 275 kts | 135° |
| 2026-05-06 20:32 | 21.31402 | -158.23218 | 5121 ft | 275 kts | 135° |
| 2026-05-06 20:32 | 21.30088 | -158.21732 | 4836 ft | 274 kts | 134° |
| 2026-05-06 20:32 | 21.28786 | -158.20248 | 4555 ft | 272 kts | 134° |
| 2026-05-06 20:32 | 21.27522 | -158.18799 | 4435 ft | 265 kts | 133° |
| 2026-05-06 20:33 | 21.26277 | -158.17370 | 4303 ft | 259 kts | 133° |
| 2026-05-06 20:33 | 21.25073 | -158.15987 | 4174 ft | 249 kts | 133° |
| 2026-05-06 20:33 | 21.23912 | -158.14654 | 4077 ft | 240 kts | 133° |
| 2026-05-06 20:33 | 21.22965 | -158.13234 | 3919 ft | 233 kts | 108° |
| 2026-05-06 20:34 | 21.22809 | -158.11536 | 3725 ft | 227 kts | 85° |
| 2026-05-06 20:34 | 21.22962 | -158.09869 | 3462 ft | 228 kts | 82° |
| 2026-05-06 20:34 | 21.23151 | -158.08166 | 3201 ft | 232 kts | 82° |
| 2026-05-06 20:34 | 21.23338 | -158.06427 | 2910 ft | 235 kts | 83° |
| 2026-05-06 20:35 | 21.23517 | -158.04708 | 2602 ft | 227 kts | 81° |
| 2026-05-06 20:35 | 21.24014 | -158.03183 | 2351 ft | 212 kts | 52° |
| 2026-05-06 20:35 | 21.24918 | -158.02007 | 2095 ft | 204 kts | 52° |
| 2026-05-06 20:35 | 21.25728 | -158.00808 | 1826 ft | 193 kts | 53° |
| 2026-05-06 20:36 | 21.26504 | -157.99683 | 1582 ft | 181 kts | 52° |
| 2026-05-06 20:36 | 21.27235 | -157.98640 | 1341 ft | 169 kts | 52° |
| 2026-05-06 20:36 | 21.27910 | -157.97679 | 1164 ft | 155 kts | 52° |
| 2026-05-06 20:36 | 21.28530 | -157.96794 | 974 ft | 145 kts | 52° |
| 2026-05-06 20:37 | 21.29132 | -157.95935 | 768 ft | 143 kts | 51° |
| 2026-05-06 20:37 | 21.29722 | -157.95080 | 598 ft | 144 kts | 52° |
| 2026-05-06 20:37 | 21.30316 | -157.94221 | 415 ft | 145 kts | 50° |
| 2026-05-06 20:37 | 21.30938 | -157.93363 | 221 ft | 147 kts | 50° |
| 2026-05-06 20:38 | 21.31551 | -157.92484 | 40 ft | 143 kts | 50° |
| 2026-05-06 20:38 | 21.32078 | -157.91743 | 25 ft | 98 kts | 53° |
| 2026-05-06 20:38 | 21.32359 | -157.91344 | 23 ft | 38 kts | 53° |
| 2026-05-06 20:38 | 21.32516 | -157.91124 | 23 ft | 36 kts | 53° |
| 2026-05-06 20:39 | 21.32659 | -157.90921 | 23 ft | 33 kts | 53° |
| 2026-05-06 20:39 | 21.32797 | -157.90725 | 24 ft | 28 kts | 52° |
| 2026-05-06 20:39 | 21.32862 | -157.90655 | 23 ft | 11 kts | 19° |
| 2026-05-06 20:39 | 21.32935 | -157.90679 | 23 ft | 13 kts | 325° |
| 2026-05-06 20:40 | 21.33024 | -157.90750 | 23 ft | 16 kts | 310° |
| 2026-05-06 20:40 | 21.33036 | -157.90862 | 24 ft | 17 kts | 257° |
| 2026-05-06 20:40 | 21.32948 | -157.90999 | 24 ft | 28 kts | 233° |
| 2026-05-06 20:40 | 21.32820 | -157.91178 | 25 ft | 31 kts | 232° |
| 2026-05-06 20:41 | 21.32758 | -157.91312 | 23 ft | 13 kts | 283° |
| 2026-05-06 20:41 | 21.32773 | -157.91410 | 23 ft | 15 kts | 271° |
| 2026-05-06 20:41 | 21.32774 | -157.91523 | 23 ft | 7 kts | 270° |
| 2026-05-06 20:41 | 21.32786 | -157.91565 | 25 ft | 6 kts | 321° |
| 2026-05-06 20:42 | 21.32829 | -157.91569 | 23 ft | 6 kts | 360° |
| 2026-05-06 20:42 | 21.32862 | -157.91569 | 23 ft | 3 kts | 0° |
| 2026-05-06 20:42 | 21.32867 | -157.91569 | 25 ft | 0 kts | 0° |